createdAt,value
2023-04-15T00:02:15.344Z,99930.52
2023-04-15T00:04:44.731Z,99961.11
2023-04-15T00:07:15.835Z,99962.69
2023-04-15T00:09:45.714Z,99974.79
2023-04-15T00:12:15.672Z,99984.89
2023-04-15T00:14:44.834Z,99978.73
2023-04-15T00:17:14.454Z,99970.53
2023-04-15T00:19:44.288Z,99966.98
2023-04-15T00:22:13.745Z,99965.63
2023-04-15T00:24:43.885Z,99966.91
2023-04-15T00:27:14.792Z,99962.01
2023-04-15T00:29:44.138Z,99958.18
2023-04-15T00:32:13.340Z,99958.10
2023-04-15T00:34:42.743Z,99962.33
2023-04-15T00:37:12.133Z,99973.20
2023-04-15T00:39:41.343Z,99988.30
2023-04-15T00:42:11.439Z,99988.68
2023-04-15T00:44:40.760Z,99985.04
2023-04-15T00:47:11.406Z,99985.98
2023-04-15T00:49:40.936Z,99980.48
2023-04-15T00:52:10.385Z,99984.93
2023-04-15T00:54:40.203Z,99982.83
2023-04-15T00:57:09.578Z,99988.48
2023-04-15T00:59:39.071Z,99997.23
2023-04-15T01:02:08.789Z,99997.32
2023-04-15T01:04:38.368Z,99998.27
2023-04-15T01:07:09.383Z,99995.16
2023-04-15T01:09:39.125Z,99986.74
2023-04-15T01:12:10.919Z,99990.30
2023-04-15T01:14:40.623Z,99997.89
2023-04-15T01:17:09.756Z,100006.36
2023-04-15T01:19:40.175Z,100012.23
2023-04-15T01:22:10.160Z,100011.17
2023-04-15T01:24:39.724Z,99994.23
2023-04-15T01:27:14.353Z,99988.05
2023-04-15T01:29:46.670Z,99988.64
2023-04-15T01:32:16.013Z,99992.25
2023-04-15T01:34:45.733Z,99999.91
2023-04-15T01:37:16.051Z,99999.02
2023-04-15T01:39:45.845Z,100000.81
2023-04-15T01:42:15.367Z,99995.13
2023-04-15T01:44:45.258Z,99992.06
2023-04-15T01:47:15.265Z,99991.78
2023-04-15T01:49:46.101Z,99984.88
2023-04-15T01:52:15.481Z,99979.38
2023-04-15T01:54:45.351Z,99983.36
2023-04-15T01:57:16.849Z,99993.87
2023-04-15T01:59:46.567Z,100001.81
2023-04-15T02:02:15.703Z,100010.10
2023-04-15T02:04:44.976Z,100005.04
2023-04-15T02:07:14.738Z,99997.00
2023-04-15T02:09:45.643Z,99987.96
2023-04-15T02:12:15.289Z,99977.79
2023-04-15T02:14:44.445Z,99972.78
2023-04-15T02:17:13.636Z,99980.06
2023-04-15T02:19:42.933Z,99990.23
2023-04-15T02:22:17.759Z,99994.69
2023-04-15T02:24:48.766Z,99991.64
2023-04-15T02:27:18.931Z,99987.57
2023-04-15T02:29:50.476Z,99982.48
2023-04-15T02:32:22.846Z,99987.52
2023-04-15T02:34:53.571Z,99985.79
2023-04-15T02:37:22.855Z,99988.48
2023-04-15T02:39:52.208Z,99987.69
2023-04-15T02:42:22.240Z,99983.73
2023-04-15T02:44:51.272Z,99986.23
2023-04-15T02:47:20.727Z,99984.17
2023-04-15T02:49:50.671Z,99984.86
2023-04-15T02:52:19.951Z,99980.96
2023-04-15T02:54:51.768Z,99971.84
2023-04-15T02:57:21.138Z,99975.15
2023-04-15T02:59:50.262Z,99983.53
2023-04-15T03:02:22.326Z,99985.54
2023-04-15T03:04:51.779Z,99985.61
2023-04-15T03:07:20.982Z,99990.92
2023-04-15T03:09:50.170Z,99998.83
2023-04-15T03:12:19.477Z,100004.20
2023-04-15T03:14:48.721Z,100004.35
2023-04-15T03:17:17.918Z,99993.30
2023-04-15T03:19:47.258Z,99987.35
2023-04-15T03:22:17.911Z,99983.77
2023-04-15T03:24:47.161Z,99986.33
2023-04-15T03:27:16.563Z,99994.46
2023-04-15T03:29:45.753Z,100001.82
2023-04-15T03:32:16.400Z,100014.84
2023-04-15T03:34:45.866Z,100023.43
2023-04-15T03:37:15.526Z,100023.95
2023-04-15T03:39:46.247Z,100024.95
2023-04-15T03:42:15.501Z,100021.98
2023-04-15T03:44:44.548Z,100018.80
2023-04-15T03:47:14.319Z,100009.57
2023-04-15T03:49:46.275Z,100005.09
2023-04-15T03:52:16.053Z,100009.50
2023-04-15T03:54:45.493Z,100034.14
2023-04-15T03:57:15.808Z,100058.72
2023-04-15T03:59:45.425Z,100069.81
2023-04-15T04:02:15.093Z,100072.40
2023-04-15T04:04:44.449Z,100071.61
2023-04-15T04:07:17.931Z,100069.03
2023-04-15T04:09:47.534Z,100065.35
2023-04-15T04:12:18.875Z,100074.97
2023-04-15T04:14:50.347Z,100076.42
2023-04-15T04:17:20.477Z,100069.27
2023-04-15T04:19:49.867Z,100073.17
2023-04-15T04:22:22.289Z,100071.89
2023-04-15T04:24:55.318Z,100065.34
2023-04-15T04:27:27.338Z,100062.35
2023-04-15T04:29:56.577Z,100061.83
2023-04-15T04:32:26.020Z,100054.83
2023-04-15T04:34:55.491Z,100057.94
2023-04-15T04:37:25.301Z,100059.14
2023-04-15T04:39:54.620Z,100062.73
2023-04-15T04:42:24.080Z,100071.59
2023-04-15T04:44:53.450Z,100073.55
2023-04-15T04:48:09.763Z,100071.20
2023-04-15T04:50:23.754Z,100051.83
2023-04-15T04:52:54.026Z,100051.05
2023-04-15T04:55:23.214Z,100054.65
2023-04-15T04:57:52.764Z,100052.67
2023-04-15T05:00:22.337Z,100055.85
2023-04-15T05:02:55.141Z,100059.63
2023-04-15T05:05:24.941Z,100058.52
2023-04-15T05:07:54.258Z,100065.70
2023-04-15T05:10:23.757Z,100068.72
2023-04-15T05:12:53.004Z,100067.96
2023-04-15T05:15:22.933Z,100068.56
2023-04-15T05:17:52.751Z,100077.52
2023-04-15T05:20:22.013Z,100085.55
2023-04-15T05:22:51.818Z,100086.42
2023-04-15T05:25:22.031Z,100086.23
2023-04-15T05:27:51.591Z,100081.14
2023-04-15T05:30:21.776Z,100074.16
2023-04-15T05:32:53.194Z,100080.48
2023-04-15T05:35:22.798Z,100086.29
2023-04-15T05:37:52.023Z,100093.13
2023-04-15T05:40:22.279Z,100098.45
2023-04-15T05:42:51.891Z,100106.04
2023-04-15T05:45:21.576Z,100116.77
2023-04-15T05:47:53.729Z,100125.02
2023-04-15T05:50:23.078Z,100126.46
2023-04-15T05:52:58.225Z,100130.00
2023-04-15T05:55:28.477Z,100127.30
2023-04-15T05:58:03.523Z,100128.00
2023-04-15T06:00:35.926Z,100136.27
2023-04-15T06:03:05.895Z,100144.27
2023-04-15T06:05:35.506Z,100145.17
2023-04-15T06:08:04.826Z,100140.95
2023-04-15T06:10:36.072Z,100140.66
2023-04-15T06:13:07.384Z,100138.91
2023-04-15T06:15:37.520Z,100130.27
2023-04-15T06:18:07.243Z,100121.83
2023-04-15T06:20:37.181Z,100124.77
2023-04-15T06:23:06.650Z,100125.48
2023-04-15T06:25:36.282Z,100130.30
2023-04-15T06:28:05.978Z,100129.77
2023-04-15T06:30:36.587Z,100123.48
2023-04-15T06:33:06.916Z,100118.70
2023-04-15T06:35:36.044Z,100118.11
2023-04-15T06:38:06.102Z,100116.89
2023-04-15T06:40:35.470Z,100118.42
2023-04-15T06:43:05.029Z,100112.58
2023-04-15T06:45:34.559Z,100112.39
2023-04-15T06:48:04.346Z,100115.05
2023-04-15T06:50:35.352Z,100116.39
2023-04-15T06:53:04.655Z,100114.44
2023-04-15T06:55:33.928Z,100122.96
2023-04-15T06:58:03.600Z,100123.97
2023-04-15T07:00:36.831Z,100128.80
2023-04-15T07:03:09.570Z,100129.31
2023-04-15T07:05:39.174Z,100133.96
2023-04-15T07:08:08.478Z,100140.48
2023-04-15T07:10:38.181Z,100136.02
2023-04-15T07:13:08.408Z,100131.26
2023-04-15T07:15:37.808Z,100127.65
2023-04-15T07:18:07.150Z,100134.46
2023-04-15T07:20:36.555Z,100137.04
2023-04-15T07:23:06.085Z,100140.29
2023-04-15T07:25:35.318Z,100143.96
2023-04-15T07:28:05.149Z,100145.70
2023-04-15T07:30:35.278Z,100147.27
2023-04-15T07:33:04.618Z,100143.75
2023-04-15T07:35:33.857Z,100141.15
2023-04-15T07:38:08.058Z,100147.85
2023-04-15T07:40:37.374Z,100153.08
2023-04-15T07:43:06.933Z,100155.73
2023-04-15T07:45:36.324Z,100155.02
2023-04-15T07:48:07.865Z,100159.77
2023-04-15T07:50:37.641Z,100159.82
2023-04-15T07:53:06.974Z,100161.86
2023-04-15T07:55:36.211Z,100162.03
2023-04-15T07:58:05.558Z,100170.50
2023-04-15T08:00:35.774Z,100173.75
2023-04-15T08:03:07.921Z,100180.28
2023-04-15T08:05:37.347Z,100188.98
2023-04-15T08:08:07.008Z,100186.80
2023-04-15T08:10:38.096Z,100189.64
2023-04-15T08:13:07.720Z,100191.98
2023-04-15T08:15:37.517Z,100195.44
2023-04-15T08:18:07.963Z,100198.56
2023-04-15T08:20:37.964Z,100198.44
2023-04-15T08:23:07.127Z,100201.10
2023-04-15T08:25:36.640Z,100199.48
2023-04-15T08:28:07.477Z,100202.13
2023-04-15T08:30:36.665Z,100202.63
2023-04-15T08:33:06.288Z,100205.61
2023-04-15T08:35:35.997Z,100211.39
2023-04-15T08:38:05.159Z,100213.66
2023-04-15T08:40:42.590Z,100216.32
2023-04-15T08:43:17.195Z,100216.73
2023-04-15T08:45:49.360Z,100219.77
2023-04-15T08:48:19.396Z,100216.21
2023-04-15T08:50:49.571Z,100215.22
2023-04-15T08:53:19.241Z,100214.02
2023-04-15T08:55:53.127Z,100215.39
2023-04-15T08:58:22.412Z,100211.41
2023-04-15T09:00:52.286Z,100207.91
2023-04-15T09:03:23.224Z,100204.40
2023-04-15T09:05:53.386Z,100203.02
2023-04-15T09:08:22.527Z,100201.43
2023-04-15T09:10:52.060Z,100206.21
2023-04-15T09:13:21.495Z,100204.45
2023-04-15T09:15:52.350Z,100202.85
2023-04-15T09:18:32.918Z,100209.77
2023-04-15T09:21:13.362Z,100204.18
2023-04-15T09:23:56.225Z,100197.20
2023-04-15T09:26:36.602Z,100202.65
2023-04-15T09:29:07.554Z,100202.34
2023-04-15T09:31:38.881Z,100197.42
2023-04-15T09:34:08.385Z,100195.05
2023-04-15T09:36:54.241Z,100191.16
2023-04-15T09:39:27.449Z,100198.18
2023-04-15T09:42:07.150Z,100195.61
2023-04-15T09:44:36.354Z,100194.23
2023-04-15T09:47:06.404Z,100198.65
2023-04-15T09:49:35.900Z,100197.23
2023-04-15T09:52:06.540Z,100192.90
2023-04-15T09:54:37.895Z,100198.20
2023-04-15T09:57:09.396Z,100196.91
2023-04-15T09:59:40.047Z,100191.41
2023-04-15T10:02:10.995Z,100191.61
2023-04-15T10:04:42.106Z,100182.79
2023-04-15T10:07:13.819Z,100181.03
2023-04-15T10:09:46.461Z,100176.70
2023-04-15T10:12:19.363Z,100182.10
2023-04-15T10:14:56.670Z,100173.33
2023-04-15T10:17:31.187Z,100178.15
2023-04-15T10:20:05.167Z,100178.88
2023-04-15T10:22:35.670Z,100178.35
2023-04-15T10:25:07.646Z,100176.31
2023-04-15T10:27:37.362Z,100173.08
2023-04-15T10:30:09.135Z,100174.23
2023-04-15T10:32:39.949Z,100176.05
2023-04-15T10:35:10.706Z,100185.28
2023-04-15T10:37:40.028Z,100191.40
2023-04-15T10:40:32.772Z,100192.51
2023-04-15T10:43:04.900Z,100190.20
2023-04-15T10:45:37.352Z,100196.48
2023-04-15T10:48:08.812Z,100192.38
2023-04-15T10:50:38.893Z,100190.23
2023-04-15T10:53:11.413Z,100195.13
2023-04-15T10:55:40.877Z,100191.45
2023-04-15T10:58:11.092Z,100186.27
2023-04-15T11:00:40.754Z,100185.08
2023-04-15T11:03:11.700Z,100194.00
2023-04-15T11:05:54.139Z,100193.02
2023-04-15T11:08:59.800Z,100194.36
2023-04-15T11:12:07.998Z,100204.14
2023-04-15T11:14:43.030Z,100191.29
2023-04-15T11:17:12.990Z,100190.42
2023-04-15T11:19:45.258Z,100193.27
2023-04-15T11:22:15.182Z,100197.91
2023-04-15T11:24:50.406Z,100202.21
2023-04-15T11:27:26.878Z,100198.81
2023-04-15T11:29:56.151Z,100192.66
2023-04-15T11:32:25.599Z,100193.01
2023-04-15T11:34:58.054Z,100191.80
2023-04-15T11:37:33.117Z,100192.83
2023-04-15T11:40:04.907Z,100190.30
2023-04-15T11:42:48.644Z,100193.43
2023-04-15T11:45:19.928Z,100188.47
2023-04-15T11:47:49.385Z,100189.73
2023-04-15T11:50:23.137Z,100190.58
2023-04-15T11:52:57.366Z,100191.98
2023-04-15T11:55:27.417Z,100188.14
2023-04-15T11:58:10.403Z,100182.94
2023-04-15T12:00:40.742Z,100185.25
2023-04-15T12:03:20.316Z,100190.70
2023-04-15T12:06:17.266Z,100184.34
2023-04-15T12:09:03.251Z,100175.48
2023-04-15T12:11:38.067Z,100177.06
2023-04-15T12:14:10.828Z,100176.00
2023-04-15T12:16:48.823Z,100177.55
2023-04-15T12:19:23.740Z,100184.27
2023-04-15T12:21:54.492Z,100177.59
2023-04-15T12:24:23.681Z,100178.45
2023-04-15T12:26:56.737Z,100182.14
2023-04-15T12:29:28.225Z,100187.10
2023-04-15T12:31:58.788Z,100180.59
2023-04-15T12:34:30.610Z,100185.42
2023-04-15T12:37:06.281Z,100197.19
2023-04-15T12:39:38.738Z,100188.11
2023-04-15T12:42:09.999Z,100177.05
2023-04-15T12:44:42.625Z,100191.27
2023-04-15T12:47:13.287Z,100190.80
2023-04-15T12:49:45.303Z,100188.86
2023-04-15T12:52:16.181Z,100186.73
2023-04-15T12:54:46.358Z,100183.14
2023-04-15T12:57:15.610Z,100176.18
2023-04-15T12:59:44.722Z,100175.04
2023-04-15T13:02:15.248Z,100176.80
2023-04-15T13:04:45.081Z,100185.54
2023-04-15T13:07:15.332Z,100185.91
2023-04-15T13:09:44.616Z,100173.84
2023-04-15T13:12:14.814Z,100160.73
2023-04-15T13:14:44.055Z,100153.48
2023-04-15T13:17:13.610Z,100159.88
2023-04-15T13:19:42.862Z,100158.02
2023-04-15T13:22:12.392Z,100162.52
2023-04-15T13:24:41.660Z,100164.42
2023-04-15T13:27:11.113Z,100163.37
2023-04-15T13:29:40.784Z,100161.86
2023-04-15T13:32:09.912Z,100167.45
2023-04-15T13:34:39.311Z,100169.71
2023-04-15T13:37:08.945Z,100163.27
2023-04-15T13:39:38.209Z,100161.05
2023-04-15T13:42:07.442Z,100164.65
2023-04-15T13:44:36.904Z,100174.75
2023-04-15T13:47:06.308Z,100171.11
2023-04-15T13:49:37.078Z,100171.80
2023-04-15T13:52:06.789Z,100171.46
2023-04-15T13:54:37.481Z,100182.45
2023-04-15T13:57:07.684Z,100177.24
2023-04-15T13:59:36.913Z,100179.39
2023-04-15T14:02:06.867Z,100188.33
2023-04-15T14:04:36.540Z,100192.70
2023-04-15T14:07:06.382Z,100184.48
2023-04-15T14:09:42.996Z,100187.67
2023-04-15T14:12:12.777Z,100194.84
2023-04-15T14:14:42.035Z,100197.48
2023-04-15T14:17:11.427Z,100200.81
2023-04-15T14:19:41.243Z,100200.95
2023-04-15T14:22:11.313Z,100199.05
2023-04-15T14:24:48.793Z,100201.48
2023-04-15T14:27:18.368Z,100201.49
2023-04-15T14:29:47.857Z,100208.86
2023-04-15T14:32:17.402Z,100204.56
2023-04-15T14:34:47.175Z,100201.61
2023-04-15T14:37:17.238Z,100203.20
2023-04-15T14:39:46.802Z,100216.09
2023-04-15T14:42:17.294Z,100214.06
2023-04-15T14:44:47.067Z,100219.09
2023-04-15T14:47:16.610Z,100228.23
2023-04-15T14:49:46.044Z,100230.19
2023-04-15T14:52:15.689Z,100226.65
2023-04-15T14:54:45.216Z,100222.63
2023-04-15T14:57:14.561Z,100222.15
2023-04-15T14:59:44.661Z,100222.45
2023-04-15T15:02:26.273Z,100228.90
2023-04-15T15:05:06.167Z,100224.77
2023-04-15T15:07:37.450Z,100223.52
2023-04-15T15:10:09.008Z,100227.34
2023-04-15T15:12:38.951Z,100230.34
2023-04-15T15:15:25.013Z,100235.20
2023-04-15T15:17:55.178Z,100235.10
2023-04-15T15:20:25.455Z,100233.95
2023-04-15T15:22:56.251Z,100235.02
2023-04-15T15:25:27.046Z,100237.55
2023-04-15T15:27:57.620Z,100236.98
2023-04-15T15:30:30.453Z,100235.64
2023-04-15T15:33:06.746Z,100234.36
2023-04-15T15:35:36.545Z,100236.31
2023-04-15T15:38:11.592Z,100241.07
2023-04-15T15:40:42.685Z,100241.24
2023-04-15T15:43:12.310Z,100242.60
2023-04-15T15:45:43.291Z,100244.73
2023-04-15T15:48:13.245Z,100245.73
2023-04-15T15:50:42.500Z,100247.98
2023-04-15T15:53:13.169Z,100247.16
2023-04-15T15:55:43.097Z,100247.36
2023-04-15T15:58:12.681Z,100246.92
2023-04-15T16:00:42.510Z,100251.42
2023-04-15T16:03:12.041Z,100246.89
2023-04-15T16:05:41.217Z,100251.66
2023-04-15T16:08:10.645Z,100247.62
2023-04-15T16:10:40.432Z,100247.48
2023-04-15T16:13:10.359Z,100247.36
2023-04-15T16:15:39.516Z,100249.96
2023-04-15T16:18:08.911Z,100251.95
2023-04-15T16:20:39.156Z,100253.46
2023-04-15T16:23:14.160Z,100254.60
2023-04-15T16:25:44.753Z,100252.06
2023-04-15T16:28:25.789Z,100251.86
2023-04-15T16:30:57.582Z,100252.42
2023-04-15T16:33:27.625Z,100253.03
2023-04-15T16:35:57.296Z,100256.98
2023-04-15T16:38:26.920Z,100256.58
2023-04-15T16:41:00.352Z,100257.70
2023-04-15T16:43:29.699Z,100258.27
2023-04-15T16:45:59.336Z,100260.30
2023-04-15T16:48:28.988Z,100258.63
2023-04-15T16:50:59.766Z,100261.05
2023-04-15T16:53:29.705Z,100259.50
2023-04-15T16:55:59.231Z,100259.80
2023-04-15T16:58:28.666Z,100264.39
2023-04-15T17:00:58.216Z,100266.48
2023-04-15T17:03:28.079Z,100270.75
2023-04-15T17:05:57.393Z,100269.37
2023-04-15T17:08:26.621Z,100273.73
2023-04-15T17:10:57.343Z,100274.68
2023-04-15T17:13:27.378Z,100273.02
2023-04-15T17:15:56.671Z,100273.88
2023-04-15T17:18:26.645Z,100272.02
2023-04-15T17:20:56.102Z,100275.30
2023-04-15T17:23:26.595Z,100277.20
2023-04-15T17:25:55.983Z,100281.77
2023-04-15T17:28:25.512Z,100281.29
2023-04-15T17:30:54.712Z,100285.77
2023-04-15T17:33:55.102Z,100288.09
2023-04-15T17:36:13.957Z,100291.51
2023-04-15T17:38:43.260Z,100297.70
2023-04-15T17:41:12.778Z,100304.76
2023-04-15T17:43:43.276Z,100304.88
2023-04-15T17:46:12.960Z,100304.73
2023-04-15T17:48:42.172Z,100303.60
2023-04-15T17:51:12.359Z,100304.06
2023-04-15T17:53:41.647Z,100310.01
2023-04-15T17:56:10.932Z,100314.50
2023-04-15T17:58:40.189Z,100314.13
2023-04-15T18:01:09.595Z,100317.30
2023-04-15T18:03:39.070Z,100321.16
2023-04-15T18:06:08.479Z,100323.58
2023-04-15T18:08:37.830Z,100324.77
2023-04-15T18:11:08.794Z,100336.61
2023-04-15T18:13:38.343Z,100339.65
2023-04-15T18:16:07.819Z,100343.27
2023-04-15T18:18:38.316Z,100345.05
2023-04-15T18:21:07.901Z,100349.84
2023-04-15T18:23:38.660Z,100352.54
2023-04-15T18:26:08.153Z,100360.42
2023-04-15T18:28:39.198Z,100360.11
2023-04-15T18:31:08.940Z,100364.39
2023-04-15T18:33:39.215Z,100366.89
2023-04-15T18:36:09.606Z,100365.30
2023-04-15T18:38:38.886Z,100365.08
2023-04-15T18:41:10.008Z,100371.37
2023-04-15T18:43:39.924Z,100373.06
2023-04-15T18:46:11.921Z,100371.38
2023-04-15T18:48:41.336Z,100369.58
2023-04-15T18:51:11.750Z,100367.62
2023-04-15T18:53:42.032Z,100365.93
2023-04-15T18:56:11.410Z,100361.77
2023-04-15T18:59:28.173Z,100359.46
2023-04-15T19:01:31.029Z,100362.27
2023-04-15T19:04:01.058Z,100362.95
2023-04-15T19:06:30.440Z,100364.23
2023-04-15T19:08:59.612Z,100362.36
2023-04-15T19:11:33.208Z,100362.84
2023-04-15T19:14:03.327Z,100365.21
2023-04-15T19:16:34.624Z,100362.23
2023-04-15T19:19:06.027Z,100362.59
2023-04-15T19:21:37.104Z,100359.84
2023-04-15T19:24:08.934Z,100361.67
2023-04-15T19:26:38.244Z,100362.42
2023-04-15T19:29:08.558Z,100362.45
2023-04-15T19:31:37.904Z,100362.23
2023-04-15T19:34:07.996Z,100362.09
2023-04-15T19:36:38.335Z,100363.86
2023-04-15T19:39:08.154Z,100364.41
2023-04-15T19:41:40.125Z,100367.23
2023-04-15T19:44:12.455Z,100369.08
2023-04-15T19:46:44.174Z,100371.28
2023-04-15T19:49:13.627Z,100373.89
2023-04-15T19:51:43.154Z,100372.63
2023-04-15T19:54:12.399Z,100371.77
2023-04-15T19:56:41.740Z,100373.52
2023-04-15T19:59:12.277Z,100375.09
2023-04-15T20:01:41.982Z,100377.14
2023-04-15T20:04:11.714Z,100375.20
2023-04-15T20:06:41.259Z,100375.02
2023-04-15T20:09:11.508Z,100372.83
2023-04-15T20:12:46.283Z,100374.89
2023-04-15T20:14:30.688Z,100371.88
2023-04-15T20:17:03.201Z,100372.91
2023-04-15T20:19:33.689Z,100373.44
2023-04-15T20:22:05.060Z,100372.92
2023-04-15T20:24:35.394Z,100370.84
2023-04-15T20:27:05.838Z,100369.63
2023-04-15T20:29:37.348Z,100372.52
2023-04-15T20:32:11.041Z,100370.98
2023-04-15T20:34:40.768Z,100375.77
2023-04-15T20:37:12.223Z,100378.80
2023-04-15T20:39:42.391Z,100374.47
2023-04-15T20:42:11.575Z,100377.50
2023-04-15T20:44:40.773Z,100378.73
2023-04-15T20:47:10.469Z,100377.19
2023-04-15T20:49:40.103Z,100379.31
2023-04-15T20:52:09.707Z,100375.98
2023-04-15T20:54:39.205Z,100375.27
2023-04-15T20:57:08.536Z,100378.81
2023-04-15T20:59:38.497Z,100374.10
2023-04-15T21:02:10.005Z,100376.93
2023-04-15T21:04:39.447Z,100379.98
2023-04-15T21:07:09.450Z,100377.88
2023-04-15T21:09:40.795Z,100374.77
2023-04-15T21:12:10.594Z,100377.50
2023-04-15T21:14:40.030Z,100374.86
2023-04-15T21:17:11.117Z,100374.10
2023-04-15T21:19:40.836Z,100374.31
2023-04-15T21:22:10.010Z,100378.08
2023-04-15T21:24:39.454Z,100379.38
2023-04-15T21:27:09.079Z,100380.73
2023-04-15T21:29:39.884Z,100387.02
2023-04-15T21:32:09.209Z,100389.00
2023-04-15T21:34:38.499Z,100392.00
2023-04-15T21:37:08.379Z,100392.19
2023-04-15T21:39:38.809Z,100387.65
2023-04-15T21:42:08.564Z,100390.61
2023-04-15T21:44:38.512Z,100392.90
2023-04-15T21:47:08.706Z,100394.45
2023-04-15T21:49:38.476Z,100390.98
2023-04-15T21:52:08.534Z,100389.05
2023-04-15T21:54:38.692Z,100387.67
2023-04-15T21:57:08.777Z,100387.35
2023-04-15T21:59:38.509Z,100389.13
2023-04-15T22:02:08.692Z,100391.27
2023-04-15T22:04:38.719Z,100387.41
2023-04-15T22:07:09.296Z,100388.52
2023-04-15T22:09:38.805Z,100389.77
2023-04-15T22:12:09.170Z,100389.09
2023-04-15T22:14:38.958Z,100394.08
2023-04-15T22:17:08.820Z,100391.02
2023-04-15T22:19:38.787Z,100391.04
2023-04-15T22:22:11.763Z,100390.44
2023-04-15T22:24:41.088Z,100388.34
2023-04-15T22:27:10.633Z,100388.52
2023-04-15T22:29:39.884Z,100391.70
2023-04-15T22:32:09.338Z,100391.42
2023-04-15T22:34:39.835Z,100392.89
2023-04-15T22:37:09.251Z,100392.81
2023-04-15T22:39:39.960Z,100390.44
2023-04-15T22:42:09.532Z,100385.56
2023-04-15T22:44:38.995Z,100385.60
2023-04-15T22:47:08.807Z,100387.98
2023-04-15T22:49:38.993Z,100386.77
2023-04-15T22:52:14.514Z,100383.95
2023-04-15T22:54:49.566Z,100379.87
2023-04-15T22:57:19.050Z,100381.00
2023-04-15T22:59:48.243Z,100374.80
2023-04-15T23:02:17.692Z,100373.63
2023-04-15T23:04:47.505Z,100373.69
2023-04-15T23:07:16.848Z,100371.14
2023-04-15T23:09:45.983Z,100372.06
2023-04-15T23:12:15.606Z,100368.40
2023-04-15T23:14:45.403Z,100370.22
2023-04-15T23:17:14.657Z,100367.59
2023-04-15T23:19:43.915Z,100368.91
2023-04-15T23:22:13.273Z,100371.27
2023-04-15T23:24:42.773Z,100370.45
2023-04-15T23:27:11.980Z,100368.45
2023-04-15T23:29:41.302Z,100367.14
2023-04-15T23:32:10.489Z,100370.73
2023-04-15T23:34:40.093Z,100370.99
2023-04-15T23:37:09.398Z,100372.61
2023-04-15T23:39:39.532Z,100368.08
2023-04-15T23:42:09.538Z,100365.27
2023-04-15T23:44:39.496Z,100360.91
2023-04-15T23:47:10.739Z,100362.16
2023-04-15T23:49:41.352Z,100358.52
2023-04-15T23:52:26.410Z,100352.38
2023-04-15T23:54:55.546Z,100349.89
2023-04-15T23:57:24.624Z,100350.20
2023-04-15T23:59:54.591Z,100345.63
